sensor_id;sensor_type;location;lat;lon;timestamp;P1;durP1;ratioP1;P2;durP2;ratioP2
45114;SDS011;30877;43.706;10.780;2023-02-26T00:01:42;22.98;;;18.20;;
45114;SDS011;30877;43.706;10.780;2023-02-26T00:04:10;20.88;;;16.67;;
45114;SDS011;30877;43.706;10.780;2023-02-26T00:06:38;24.00;;;17.23;;
45114;SDS011;30877;43.706;10.780;2023-02-26T00:09:27;22.60;;;16.42;;
45114;SDS011;30877;43.706;10.780;2023-02-26T00:11:56;23.58;;;15.20;;
45114;SDS011;30877;43.706;10.780;2023-02-26T00:14:24;20.20;;;15.90;;
45114;SDS011;30877;43.706;10.780;2023-02-26T00:16:56;19.00;;;14.15;;
45114;SDS011;30877;43.706;10.780;2023-02-26T00:19:40;17.23;;;15.45;;
45114;SDS011;30877;43.706;10.780;2023-02-26T00:22:09;19.55;;;14.70;;
45114;SDS011;30877;43.706;10.780;2023-02-26T00:24:37;21.13;;;15.00;;
45114;SDS011;30877;43.706;10.780;2023-02-26T00:27:04;21.55;;;14.68;;
45114;SDS011;30877;43.706;10.780;2023-02-26T00:29:33;17.95;;;13.90;;
45114;SDS011;30877;43.706;10.780;2023-02-26T00:32:03;18.35;;;13.90;;
45114;SDS011;30877;43.706;10.780;2023-02-26T00:34:32;20.75;;;14.23;;
45114;SDS011;30877;43.706;10.780;2023-02-26T00:37:03;17.38;;;13.30;;
45114;SDS011;30877;43.706;10.780;2023-02-26T00:39:45;16.35;;;13.25;;
45114;SDS011;30877;43.706;10.780;2023-02-26T00:42:17;21.33;;;13.43;;
45114;SDS011;30877;43.706;10.780;2023-02-26T00:44:45;17.83;;;13.40;;
45114;SDS011;30877;43.706;10.780;2023-02-26T00:47:16;17.17;;;12.93;;
45114;SDS011;30877;43.706;10.780;2023-02-26T00:49:56;15.48;;;11.93;;
45114;SDS011;30877;43.706;10.780;2023-02-26T00:52:35;19.60;;;12.45;;
45114;SDS011;30877;43.706;10.780;2023-02-26T00:55:09;17.23;;;12.10;;
45114;SDS011;30877;43.706;10.780;2023-02-26T00:57:36;16.50;;;12.10;;
45114;SDS011;30877;43.706;10.780;2023-02-26T01:00:05;15.20;;;11.68;;
45114;SDS011;30877;43.706;10.780;2023-02-26T01:02:35;19.55;;;13.00;;
45114;SDS011;30877;43.706;10.780;2023-02-26T01:05:05;19.48;;;13.57;;
45114;SDS011;30877;43.706;10.780;2023-02-26T01:07:36;17.10;;;13.20;;
45114;SDS011;30877;43.706;10.780;2023-02-26T01:10:08;17.77;;;13.73;;
45114;SDS011;30877;43.706;10.780;2023-02-26T01:12:37;19.25;;;13.90;;
45114;SDS011;30877;43.706;10.780;2023-02-26T01:15:06;20.75;;;14.00;;
45114;SDS011;30877;43.706;10.780;2023-02-26T01:17:38;15.93;;;13.30;;
45114;SDS011;30877;43.706;10.780;2023-02-26T01:22:43;19.73;;;14.70;;
45114;SDS011;30877;43.706;10.780;2023-02-26T01:25:17;21.00;;;14.50;;
45114;SDS011;30877;43.706;10.780;2023-02-26T01:27:49;20.70;;;15.40;;
45114;SDS011;30877;43.706;10.780;2023-02-26T01:30:17;22.15;;;15.07;;
45114;SDS011;30877;43.706;10.780;2023-02-26T01:32:50;18.30;;;14.45;;
45114;SDS011;30877;43.706;10.780;2023-02-26T01:35:29;20.85;;;16.38;;
45114;SDS011;30877;43.706;10.780;2023-02-26T01:38:09;22.15;;;15.63;;
45114;SDS011;30877;43.706;10.780;2023-02-26T01:43:49;16.25;;;13.82;;
45114;SDS011;30877;43.706;10.780;2023-02-26T01:46:25;18.48;;;14.88;;
45114;SDS011;30877;43.706;10.780;2023-02-26T01:49:00;17.13;;;14.68;;
45114;SDS011;30877;43.706;10.780;2023-02-26T01:51:39;21.90;;;14.88;;
45114;SDS011;30877;43.706;10.780;2023-02-26T01:54:13;16.88;;;10.50;;
45114;SDS011;30877;43.706;10.780;2023-02-26T01:56:42;15.88;;;9.70;;
45114;SDS011;30877;43.706;10.780;2023-02-26T01:59:12;13.18;;;8.55;;
45114;SDS011;30877;43.706;10.780;2023-02-26T02:01:42;21.35;;;9.32;;
45114;SDS011;30877;43.706;10.780;2023-02-26T02:04:12;12.82;;;9.30;;
45114;SDS011;30877;43.706;10.780;2023-02-26T02:06:42;14.02;;;9.18;;
45114;SDS011;30877;43.706;10.780;2023-02-26T02:09:10;17.10;;;9.55;;
45114;SDS011;30877;43.706;10.780;2023-02-26T02:11:40;13.73;;;9.38;;
45114;SDS011;30877;43.706;10.780;2023-02-26T02:14:19;12.73;;;9.32;;
45114;SDS011;30877;43.706;10.780;2023-02-26T02:16:52;13.57;;;9.20;;
45114;SDS011;30877;43.706;10.780;2023-02-26T02:19:32;14.55;;;8.95;;
45114;SDS011;30877;43.706;10.780;2023-02-26T02:22:39;11.02;;;8.13;;
45114;SDS011;30877;43.706;10.780;2023-02-26T02:28:19;13.88;;;8.73;;
45114;SDS011;30877;43.706;10.780;2023-02-26T02:31:00;16.95;;;10.00;;
45114;SDS011;30877;43.706;10.780;2023-02-26T02:33:36;15.13;;;8.38;;
45114;SDS011;30877;43.706;10.780;2023-02-26T02:36:12;12.55;;;7.65;;
45114;SDS011;30877;43.706;10.780;2023-02-26T02:38:44;13.45;;;8.20;;
45114;SDS011;30877;43.706;10.780;2023-02-26T02:41:18;13.02;;;8.38;;
45114;SDS011;30877;43.706;10.780;2023-02-26T02:43:49;13.10;;;6.95;;
45114;SDS011;30877;43.706;10.780;2023-02-26T02:46:20;9.60;;;5.93;;
45114;SDS011;30877;43.706;10.780;2023-02-26T02:48:53;11.18;;;6.15;;
45114;SDS011;30877;43.706;10.780;2023-02-26T02:51:27;10.32;;;5.97;;
45114;SDS011;30877;43.706;10.780;2023-02-26T02:54:00;9.65;;;5.88;;
45114;SDS011;30877;43.706;10.780;2023-02-26T02:56:35;9.18;;;5.95;;
45114;SDS011;30877;43.706;10.780;2023-02-26T02:59:10;11.40;;;7.18;;
45114;SDS011;30877;43.706;10.780;2023-02-26T03:01:45;10.55;;;5.40;;
45114;SDS011;30877;43.706;10.780;2023-02-26T03:04:16;7.82;;;5.00;;
45114;SDS011;30877;43.706;10.780;2023-02-26T03:06:45;10.05;;;5.32;;
45114;SDS011;30877;43.706;10.780;2023-02-26T03:09:17;8.52;;;4.43;;
45114;SDS011;30877;43.706;10.780;2023-02-26T03:11:45;8.55;;;4.38;;
45114;SDS011;30877;43.706;10.780;2023-02-26T03:14:13;10.35;;;4.88;;
45114;SDS011;30877;43.706;10.780;2023-02-26T03:16:52;10.88;;;4.75;;
45114;SDS011;30877;43.706;10.780;2023-02-26T03:19:37;10.35;;;4.38;;
45114;SDS011;30877;43.706;10.780;2023-02-26T03:22:21;9.40;;;4.15;;
45114;SDS011;30877;43.706;10.780;2023-02-26T03:24:59;11.23;;;4.30;;
45114;SDS011;30877;43.706;10.780;2023-02-26T03:27:36;6.70;;;3.30;;
45114;SDS011;30877;43.706;10.780;2023-02-26T03:30:13;8.32;;;3.80;;
45114;SDS011;30877;43.706;10.780;2023-02-26T03:32:50;9.38;;;4.00;;
45114;SDS011;30877;43.706;10.780;2023-02-26T03:35:25;13.38;;;3.97;;
45114;SDS011;30877;43.706;10.780;2023-02-26T03:37:58;6.90;;;3.95;;
45114;SDS011;30877;43.706;10.780;2023-02-26T03:40:31;9.43;;;4.15;;
45114;SDS011;30877;43.706;10.780;2023-02-26T03:43:05;7.18;;;3.50;;
45114;SDS011;30877;43.706;10.780;2023-02-26T03:45:36;9.63;;;4.45;;
45114;SDS011;30877;43.706;10.780;2023-02-26T03:48:08;5.97;;;4.07;;
45114;SDS011;30877;43.706;10.780;2023-02-26T03:50:40;6.80;;;4.00;;
45114;SDS011;30877;43.706;10.780;2023-02-26T03:53:30;7.78;;;4.00;;
45114;SDS011;30877;43.706;10.780;2023-02-26T03:56:12;8.73;;;4.05;;
45114;SDS011;30877;43.706;10.780;2023-02-26T03:58:59;10.27;;;4.72;;
45114;SDS011;30877;43.706;10.780;2023-02-26T04:01:44;6.90;;;3.65;;
45114;SDS011;30877;43.706;10.780;2023-02-26T04:04:19;7.10;;;4.05;;
45114;SDS011;30877;43.706;10.780;2023-02-26T04:06:51;10.73;;;4.63;;
45114;SDS011;30877;43.706;10.780;2023-02-26T04:09:22;8.75;;;3.85;;
45114;SDS011;30877;43.706;10.780;2023-02-26T04:11:51;10.18;;;4.57;;
45114;SDS011;30877;43.706;10.780;2023-02-26T04:14:21;6.10;;;3.60;;
45114;SDS011;30877;43.706;10.780;2023-02-26T04:16:52;6.30;;;3.80;;
45114;SDS011;30877;43.706;10.780;2023-02-26T04:19:21;8.30;;;3.35;;
45114;SDS011;30877;43.706;10.780;2023-02-26T04:21:49;9.80;;;4.25;;
45114;SDS011;30877;43.706;10.780;2023-02-26T04:24:18;8.00;;;3.85;;
45114;SDS011;30877;43.706;10.780;2023-02-26T04:26:47;8.10;;;4.25;;
45114;SDS011;30877;43.706;10.780;2023-02-26T04:29:16;8.73;;;4.30;;
45114;SDS011;30877;43.706;10.780;2023-02-26T04:31:44;8.57;;;4.57;;
45114;SDS011;30877;43.706;10.780;2023-02-26T04:34:12;7.47;;;4.13;;
45114;SDS011;30877;43.706;10.780;2023-02-26T04:36:43;8.38;;;4.50;;
45114;SDS011;30877;43.706;10.780;2023-02-26T04:39:11;11.43;;;5.72;;
45114;SDS011;30877;43.706;10.780;2023-02-26T04:41:39;11.45;;;5.68;;
45114;SDS011;30877;43.706;10.780;2023-02-26T04:44:08;10.32;;;5.70;;
45114;SDS011;30877;43.706;10.780;2023-02-26T04:46:40;10.52;;;5.68;;
45114;SDS011;30877;43.706;10.780;2023-02-26T04:49:09;10.63;;;5.60;;
45114;SDS011;30877;43.706;10.780;2023-02-26T04:51:42;8.80;;;4.97;;
45114;SDS011;30877;43.706;10.780;2023-02-26T04:54:13;8.10;;;5.38;;
45114;SDS011;30877;43.706;10.780;2023-02-26T04:56:41;8.90;;;5.82;;
45114;SDS011;30877;43.706;10.780;2023-02-26T04:59:09;8.25;;;4.88;;
45114;SDS011;30877;43.706;10.780;2023-02-26T05:01:40;8.02;;;4.32;;
45114;SDS011;30877;43.706;10.780;2023-02-26T05:04:09;10.20;;;4.40;;
45114;SDS011;30877;43.706;10.780;2023-02-26T05:06:40;6.43;;;4.22;;
45114;SDS011;30877;43.706;10.780;2023-02-26T05:09:12;6.68;;;4.10;;
45114;SDS011;30877;43.706;10.780;2023-02-26T05:11:40;7.65;;;4.20;;
45114;SDS011;30877;43.706;10.780;2023-02-26T05:14:08;6.72;;;4.80;;
45114;SDS011;30877;43.706;10.780;2023-02-26T05:16:38;8.57;;;4.53;;
45114;SDS011;30877;43.706;10.780;2023-02-26T05:19:06;12.18;;;5.10;;
45114;SDS011;30877;43.706;10.780;2023-02-26T05:21:34;8.43;;;4.68;;
45114;SDS011;30877;43.706;10.780;2023-02-26T05:24:05;10.23;;;4.90;;
45114;SDS011;30877;43.706;10.780;2023-02-26T05:26:33;13.30;;;4.75;;
45114;SDS011;30877;43.706;10.780;2023-02-26T05:29:02;8.52;;;5.15;;
45114;SDS011;30877;43.706;10.780;2023-02-26T05:31:30;10.60;;;5.22;;
45114;SDS011;30877;43.706;10.780;2023-02-26T05:33:57;10.77;;;4.82;;
45114;SDS011;30877;43.706;10.780;2023-02-26T05:36:25;10.20;;;5.38;;
45114;SDS011;30877;43.706;10.780;2023-02-26T05:38:53;12.18;;;5.93;;
45114;SDS011;30877;43.706;10.780;2023-02-26T05:41:23;14.85;;;5.53;;
45114;SDS011;30877;43.706;10.780;2023-02-26T05:43:51;8.70;;;4.85;;
45114;SDS011;30877;43.706;10.780;2023-02-26T05:46:19;12.57;;;5.45;;
45114;SDS011;30877;43.706;10.780;2023-02-26T05:48:47;11.10;;;5.38;;
45114;SDS011;30877;43.706;10.780;2023-02-26T05:51:15;17.02;;;6.03;;
45114;SDS011;30877;43.706;10.780;2023-02-26T05:53:44;10.57;;;5.72;;
45114;SDS011;30877;43.706;10.780;2023-02-26T05:56:12;16.15;;;5.32;;
45114;SDS011;30877;43.706;10.780;2023-02-26T05:58:43;9.65;;;5.30;;
45114;SDS011;30877;43.706;10.780;2023-02-26T06:01:11;9.55;;;5.25;;
45114;SDS011;30877;43.706;10.780;2023-02-26T06:03:39;9.40;;;5.20;;
45114;SDS011;30877;43.706;10.780;2023-02-26T06:06:10;9.23;;;5.60;;
45114;SDS011;30877;43.706;10.780;2023-02-26T06:08:38;14.30;;;5.45;;
45114;SDS011;30877;43.706;10.780;2023-02-26T06:11:06;12.65;;;5.75;;
45114;SDS011;30877;43.706;10.780;2023-02-26T06:13:34;12.52;;;5.63;;
45114;SDS011;30877;43.706;10.780;2023-02-26T06:16:04;9.05;;;5.47;;
45114;SDS011;30877;43.706;10.780;2023-02-26T06:18:32;9.40;;;4.78;;
45114;SDS011;30877;43.706;10.780;2023-02-26T06:21:00;8.27;;;4.45;;
45114;SDS011;30877;43.706;10.780;2023-02-26T06:23:29;7.68;;;3.97;;
45114;SDS011;30877;43.706;10.780;2023-02-26T06:25:57;8.88;;;3.83;;
45114;SDS011;30877;43.706;10.780;2023-02-26T06:28:25;6.38;;;4.15;;
45114;SDS011;30877;43.706;10.780;2023-02-26T06:30:54;8.80;;;3.95;;
45114;SDS011;30877;43.706;10.780;2023-02-26T06:33:23;6.50;;;3.55;;
45114;SDS011;30877;43.706;10.780;2023-02-26T06:35:52;6.97;;;4.03;;
45114;SDS011;30877;43.706;10.780;2023-02-26T06:38:20;6.50;;;3.75;;
45114;SDS011;30877;43.706;10.780;2023-02-26T06:40:48;8.50;;;4.40;;
45114;SDS011;30877;43.706;10.780;2023-02-26T06:43:16;7.78;;;4.55;;
45114;SDS011;30877;43.706;10.780;2023-02-26T06:45:44;8.48;;;4.22;;
45114;SDS011;30877;43.706;10.780;2023-02-26T06:48:12;12.30;;;5.68;;
45114;SDS011;30877;43.706;10.780;2023-02-26T06:50:42;7.20;;;4.40;;
45114;SDS011;30877;43.706;10.780;2023-02-26T06:53:10;9.35;;;4.78;;
45114;SDS011;30877;43.706;10.780;2023-02-26T06:55:41;9.43;;;5.13;;
45114;SDS011;30877;43.706;10.780;2023-02-26T06:58:10;9.15;;;4.30;;
45114;SDS011;30877;43.706;10.780;2023-02-26T07:00:39;7.22;;;4.78;;
45114;SDS011;30877;43.706;10.780;2023-02-26T07:03:08;7.03;;;4.63;;
45114;SDS011;30877;43.706;10.780;2023-02-26T07:05:38;9.88;;;5.70;;
45114;SDS011;30877;43.706;10.780;2023-02-26T07:08:08;8.25;;;4.63;;
45114;SDS011;30877;43.706;10.780;2023-02-26T07:10:36;8.00;;;4.22;;
45114;SDS011;30877;43.706;10.780;2023-02-26T07:13:05;3.95;;;2.70;;
45114;SDS011;30877;43.706;10.780;2023-02-26T07:15:33;2.38;;;1.08;;
45114;SDS011;30877;43.706;10.780;2023-02-26T07:18:01;1.20;;;0.70;;
45114;SDS011;30877;43.706;10.780;2023-02-26T07:20:29;2.13;;;0.60;;
45114;SDS011;30877;43.706;10.780;2023-02-26T07:22:57;2.63;;;0.50;;
45114;SDS011;30877;43.706;10.780;2023-02-26T07:25:27;1.40;;;0.40;;
45114;SDS011;30877;43.706;10.780;2023-02-26T07:27:55;1.60;;;0.40;;
45114;SDS011;30877;43.706;10.780;2023-02-26T07:30:24;1.55;;;1.23;;
45114;SDS011;30877;43.706;10.780;2023-02-26T07:32:53;0.90;;;0.60;;
45114;SDS011;30877;43.706;10.780;2023-02-26T07:35:21;0.35;;;0.20;;
45114;SDS011;30877;43.706;10.780;2023-02-26T07:37:49;0.80;;;0.38;;
45114;SDS011;30877;43.706;10.780;2023-02-26T07:40:18;1.58;;;0.60;;
45114;SDS011;30877;43.706;10.780;2023-02-26T07:42:48;5.28;;;0.38;;
45114;SDS011;30877;43.706;10.780;2023-02-26T07:45:16;1.00;;;0.47;;
45114;SDS011;30877;43.706;10.780;2023-02-26T07:47:48;0.95;;;0.32;;
45114;SDS011;30877;43.706;10.780;2023-02-26T07:50:16;0.63;;;0.30;;
45114;SDS011;30877;43.706;10.780;2023-02-26T07:52:45;2.58;;;0.90;;
45114;SDS011;30877;43.706;10.780;2023-02-26T07:55:13;0.85;;;0.30;;
45114;SDS011;30877;43.706;10.780;2023-02-26T07:57:41;0.32;;;0.10;;
45114;SDS011;30877;43.706;10.780;2023-02-26T08:00:11;0.32;;;0.03;;
45114;SDS011;30877;43.706;10.780;2023-02-26T08:02:41;0.10;;;0.10;;
45114;SDS011;30877;43.706;10.780;2023-02-26T08:05:09;0.22;;;0.20;;
45114;SDS011;30877;43.706;10.780;2023-02-26T08:07:37;0.82;;;0.00;;
45114;SDS011;30877;43.706;10.780;2023-02-26T08:10:05;0.52;;;0.00;;
45114;SDS011;30877;43.706;10.780;2023-02-26T08:12:34;2.88;;;0.70;;
45114;SDS011;30877;43.706;10.780;2023-02-26T08:15:02;0.45;;;0.10;;
45114;SDS011;30877;43.706;10.780;2023-02-26T08:17:32;0.38;;;0.15;;
45114;SDS011;30877;43.706;10.780;2023-02-26T08:20:00;0.57;;;0.20;;
45114;SDS011;30877;43.706;10.780;2023-02-26T08:22:28;0.98;;;0.40;;
45114;SDS011;30877;43.706;10.780;2023-02-26T08:24:56;1.08;;;0.60;;
45114;SDS011;30877;43.706;10.780;2023-02-26T08:27:24;1.05;;;0.50;;
45114;SDS011;30877;43.706;10.780;2023-02-26T08:29:52;0.55;;;0.32;;
45114;SDS011;30877;43.706;10.780;2023-02-26T08:32:20;0.88;;;0.10;;
45114;SDS011;30877;43.706;10.780;2023-02-26T08:34:50;0.50;;;0.40;;
45114;SDS011;30877;43.706;10.780;2023-02-26T08:37:18;0.32;;;0.10;;
45114;SDS011;30877;43.706;10.780;2023-02-26T08:39:48;0.50;;;0.20;;
45114;SDS011;30877;43.706;10.780;2023-02-26T08:42:17;1.05;;;0.10;;
45114;SDS011;30877;43.706;10.780;2023-02-26T08:44:46;0.13;;;0.10;;
45114;SDS011;30877;43.706;10.780;2023-02-26T08:47:14;0.80;;;0.20;;
45114;SDS011;30877;43.706;10.780;2023-02-26T08:49:55;0.85;;;0.10;;
45114;SDS011;30877;43.706;10.780;2023-02-26T08:52:24;0.13;;;0.00;;
45114;SDS011;30877;43.706;10.780;2023-02-26T08:54:52;0.68;;;0.10;;
45114;SDS011;30877;43.706;10.780;2023-02-26T08:57:21;0.38;;;0.08;;
45114;SDS011;30877;43.706;10.780;2023-02-26T08:59:48;0.47;;;0.20;;
45114;SDS011;30877;43.706;10.780;2023-02-26T09:02:16;0.00;;;0.00;;
45114;SDS011;30877;43.706;10.780;2023-02-26T09:04:44;0.28;;;0.10;;
45114;SDS011;30877;43.706;10.780;2023-02-26T09:07:14;0.20;;;0.10;;
45114;SDS011;30877;43.706;10.780;2023-02-26T09:09:44;0.15;;;0.05;;
45114;SDS011;30877;43.706;10.780;2023-02-26T09:12:12;0.60;;;0.20;;
45114;SDS011;30877;43.706;10.780;2023-02-26T09:14:40;0.10;;;0.00;;
45114;SDS011;30877;43.706;10.780;2023-02-26T09:17:08;0.20;;;0.03;;
45114;SDS011;30877;43.706;10.780;2023-02-26T09:19:36;0.00;;;0.00;;
45114;SDS011;30877;43.706;10.780;2023-02-26T09:22:04;0.40;;;0.10;;
45114;SDS011;30877;43.706;10.780;2023-02-26T09:24:34;0.30;;;0.17;;
45114;SDS011;30877;43.706;10.780;2023-02-26T09:27:03;0.22;;;0.00;;
45114;SDS011;30877;43.706;10.780;2023-02-26T09:29:36;0.52;;;0.10;;
45114;SDS011;30877;43.706;10.780;2023-02-26T09:32:05;0.00;;;0.00;;
45114;SDS011;30877;43.706;10.780;2023-02-26T09:34:36;0.50;;;0.10;;
45114;SDS011;30877;43.706;10.780;2023-02-26T09:37:20;0.43;;;0.20;;
45114;SDS011;30877;43.706;10.780;2023-02-26T09:39:50;0.30;;;0.20;;
45114;SDS011;30877;43.706;10.780;2023-02-26T09:42:23;0.30;;;0.10;;
45114;SDS011;30877;43.706;10.780;2023-02-26T09:45:02;0.10;;;0.03;;
45114;SDS011;30877;43.706;10.780;2023-02-26T09:47:33;0.10;;;0.10;;
45114;SDS011;30877;43.706;10.780;2023-02-26T09:50:12;1.40;;;0.30;;
45114;SDS011;30877;43.706;10.780;2023-02-26T09:52:46;0.40;;;0.20;;
45114;SDS011;30877;43.706;10.780;2023-02-26T09:55:33;1.17;;;0.32;;
45114;SDS011;30877;43.706;10.780;2023-02-26T09:58:09;0.35;;;0.20;;
45114;SDS011;30877;43.706;10.780;2023-02-26T10:00:42;0.90;;;0.25;;
45114;SDS011;30877;43.706;10.780;2023-02-26T10:03:19;0.40;;;0.28;;
45114;SDS011;30877;43.706;10.780;2023-02-26T10:06:01;0.43;;;0.20;;
45114;SDS011;30877;43.706;10.780;2023-02-26T10:08:41;0.13;;;0.10;;
45114;SDS011;30877;43.706;10.780;2023-02-26T10:11:19;0.40;;;0.10;;
45114;SDS011;30877;43.706;10.780;2023-02-26T10:13:52;5.65;;;0.20;;
45114;SDS011;30877;43.706;10.780;2023-02-26T10:16:25;0.30;;;0.13;;
45114;SDS011;30877;43.706;10.780;2023-02-26T10:18:58;0.30;;;0.13;;
45114;SDS011;30877;43.706;10.780;2023-02-26T10:21:33;0.10;;;0.00;;
45114;SDS011;30877;43.706;10.780;2023-02-26T10:24:07;0.20;;;0.10;;
45114;SDS011;30877;43.706;10.780;2023-02-26T10:26:42;0.57;;;0.00;;
45114;SDS011;30877;43.706;10.780;2023-02-26T10:29:16;0.30;;;0.10;;
45114;SDS011;30877;43.706;10.780;2023-02-26T10:32:01;0.70;;;0.20;;
45114;SDS011;30877;43.706;10.780;2023-02-26T10:34:36;0.17;;;0.10;;
45114;SDS011;30877;43.706;10.780;2023-02-26T10:37:11;1.65;;;0.20;;
45114;SDS011;30877;43.706;10.780;2023-02-26T10:39:46;0.10;;;0.10;;
45114;SDS011;30877;43.706;10.780;2023-02-26T10:42:20;0.22;;;0.10;;
45114;SDS011;30877;43.706;10.780;2023-02-26T10:44:56;0.15;;;0.08;;
45114;SDS011;30877;43.706;10.780;2023-02-26T10:47:36;0.38;;;0.10;;
45114;SDS011;30877;43.706;10.780;2023-02-26T10:50:11;2.38;;;0.98;;
45114;SDS011;30877;43.706;10.780;2023-02-26T10:52:41;9.32;;;4.88;;
45114;SDS011;30877;43.706;10.780;2023-02-26T10:58:10;0.67;;;0.40;;
45114;SDS011;30877;43.706;10.780;2023-02-26T11:00:41;1.23;;;0.50;;
45114;SDS011;30877;43.706;10.780;2023-02-26T11:03:12;2.03;;;0.80;;
45114;SDS011;30877;43.706;10.780;2023-02-26T11:05:47;0.98;;;0.40;;
45114;SDS011;30877;43.706;10.780;2023-02-26T11:08:17;0.75;;;0.30;;
45114;SDS011;30877;43.706;10.780;2023-02-26T11:10:50;1.83;;;1.73;;
45114;SDS011;30877;43.706;10.780;2023-02-26T11:13:21;0.50;;;0.30;;
45114;SDS011;30877;43.706;10.780;2023-02-26T11:15:51;0.50;;;0.20;;
45114;SDS011;30877;43.706;10.780;2023-02-26T11:18:22;0.30;;;0.30;;
45114;SDS011;30877;43.706;10.780;2023-02-26T11:20:53;0.15;;;0.10;;
45114;SDS011;30877;43.706;10.780;2023-02-26T11:23:25;0.65;;;0.15;;
45114;SDS011;30877;43.706;10.780;2023-02-26T11:25:57;0.35;;;0.20;;
45114;SDS011;30877;43.706;10.780;2023-02-26T11:28:33;0.10;;;0.10;;
45114;SDS011;30877;43.706;10.780;2023-02-26T11:31:04;0.40;;;0.10;;
45114;SDS011;30877;43.706;10.780;2023-02-26T11:33:36;0.30;;;0.20;;
45114;SDS011;30877;43.706;10.780;2023-02-26T11:36:08;0.25;;;0.10;;
45114;SDS011;30877;43.706;10.780;2023-02-26T11:38:38;1.02;;;0.30;;
45114;SDS011;30877;43.706;10.780;2023-02-26T11:41:07;1.85;;;0.30;;
45114;SDS011;30877;43.706;10.780;2023-02-26T11:43:41;1.40;;;0.38;;
45114;SDS011;30877;43.706;10.780;2023-02-26T11:46:11;0.25;;;0.10;;
45114;SDS011;30877;43.706;10.780;2023-02-26T11:48:40;1.40;;;0.60;;
45114;SDS011;30877;43.706;10.780;2023-02-26T11:51:11;7.20;;;4.03;;
45114;SDS011;30877;43.706;10.780;2023-02-26T11:53:43;4.35;;;2.47;;
45114;SDS011;30877;43.706;10.780;2023-02-26T11:56:24;1.45;;;0.60;;
45114;SDS011;30877;43.706;10.780;2023-02-26T11:58:54;0.90;;;0.30;;
45114;SDS011;30877;43.706;10.780;2023-02-26T12:01:31;1.17;;;0.77;;
45114;SDS011;30877;43.706;10.780;2023-02-26T12:04:00;0.70;;;0.40;;
45114;SDS011;30877;43.706;10.780;2023-02-26T12:06:29;0.45;;;0.20;;
45114;SDS011;30877;43.706;10.780;2023-02-26T12:08:57;0.50;;;0.30;;
45114;SDS011;30877;43.706;10.780;2023-02-26T12:11:35;0.30;;;0.20;;
45114;SDS011;30877;43.706;10.780;2023-02-26T12:14:16;0.47;;;0.20;;
45114;SDS011;30877;43.706;10.780;2023-02-26T12:16:59;0.40;;;0.13;;
45114;SDS011;30877;43.706;10.780;2023-02-26T12:19:39;0.45;;;0.20;;
45114;SDS011;30877;43.706;10.780;2023-02-26T12:22:22;0.38;;;0.20;;
45114;SDS011;30877;43.706;10.780;2023-02-26T12:25:07;0.52;;;0.30;;
45114;SDS011;30877;43.706;10.780;2023-02-26T12:28:02;1.65;;;1.25;;
45114;SDS011;30877;43.706;10.780;2023-02-26T12:30:57;1.20;;;0.80;;
45114;SDS011;30877;43.706;10.780;2023-02-26T12:33:43;0.40;;;0.30;;
45114;SDS011;30877;43.706;10.780;2023-02-26T12:36:24;0.52;;;0.28;;
45114;SDS011;30877;43.706;10.780;2023-02-26T12:39:18;0.52;;;0.30;;
45114;SDS011;30877;43.706;10.780;2023-02-26T12:42:01;0.88;;;0.40;;
45114;SDS011;30877;43.706;10.780;2023-02-26T12:44:53;0.77;;;0.30;;
45114;SDS011;30877;43.706;10.780;2023-02-26T12:47:34;0.57;;;0.40;;
45114;SDS011;30877;43.706;10.780;2023-02-26T12:50:27;0.60;;;0.28;;
45114;SDS011;30877;43.706;10.780;2023-02-26T12:53:12;0.50;;;0.30;;
45114;SDS011;30877;43.706;10.780;2023-02-26T12:56:16;1.15;;;0.60;;
45114;SDS011;30877;43.706;10.780;2023-02-26T12:59:09;1.55;;;0.77;;
45114;SDS011;30877;43.706;10.780;2023-02-26T13:01:55;1.85;;;0.55;;
45114;SDS011;30877;43.706;10.780;2023-02-26T13:04:37;1.38;;;0.82;;
45114;SDS011;30877;43.706;10.780;2023-02-26T13:10:19;0.95;;;0.47;;
45114;SDS011;30877;43.706;10.780;2023-02-26T13:12:57;0.75;;;0.30;;
45114;SDS011;30877;43.706;10.780;2023-02-26T13:15:45;1.10;;;0.68;;
45114;SDS011;30877;43.706;10.780;2023-02-26T13:18:21;1.15;;;0.65;;
45114;SDS011;30877;43.706;10.780;2023-02-26T13:21:00;1.08;;;0.47;;
45114;SDS011;30877;43.706;10.780;2023-02-26T13:23:33;0.88;;;0.47;;
45114;SDS011;30877;43.706;10.780;2023-02-26T13:26:05;0.73;;;0.40;;
45114;SDS011;30877;43.706;10.780;2023-02-26T13:28:37;0.85;;;0.40;;
45114;SDS011;30877;43.706;10.780;2023-02-26T13:31:10;0.98;;;0.60;;
45114;SDS011;30877;43.706;10.780;2023-02-26T13:33:42;1.52;;;0.50;;
45114;SDS011;30877;43.706;10.780;2023-02-26T13:36:13;0.28;;;0.10;;
45114;SDS011;30877;43.706;10.780;2023-02-26T13:38:48;0.30;;;0.20;;
45114;SDS011;30877;43.706;10.780;2023-02-26T13:41:33;0.50;;;0.25;;
45114;SDS011;30877;43.706;10.780;2023-02-26T13:44:12;0.20;;;0.10;;
45114;SDS011;30877;43.706;10.780;2023-02-26T13:49:53;0.93;;;0.20;;
45114;SDS011;30877;43.706;10.780;2023-02-26T13:52:50;0.20;;;0.10;;
45114;SDS011;30877;43.706;10.780;2023-02-26T13:55:34;0.40;;;0.20;;
45114;SDS011;30877;43.706;10.780;2023-02-26T13:58:15;0.55;;;0.20;;
45114;SDS011;30877;43.706;10.780;2023-02-26T14:00:45;0.10;;;0.10;;
45114;SDS011;30877;43.706;10.780;2023-02-26T14:03:31;0.40;;;0.30;;
45114;SDS011;30877;43.706;10.780;2023-02-26T14:06:08;0.52;;;0.40;;
45114;SDS011;30877;43.706;10.780;2023-02-26T14:08:53;0.82;;;0.30;;
45114;SDS011;30877;43.706;10.780;2023-02-26T14:14:32;0.52;;;0.30;;
45114;SDS011;30877;43.706;10.780;2023-02-26T14:17:25;0.30;;;0.17;;
45114;SDS011;30877;43.706;10.780;2023-02-26T14:22:54;0.75;;;0.40;;
45114;SDS011;30877;43.706;10.780;2023-02-26T14:25:44;0.85;;;0.50;;
45114;SDS011;30877;43.706;10.780;2023-02-26T14:28:19;1.73;;;1.02;;
45114;SDS011;30877;43.706;10.780;2023-02-26T14:31:05;2.15;;;0.75;;
45114;SDS011;30877;43.706;10.780;2023-02-26T14:33:39;1.77;;;1.08;;
45114;SDS011;30877;43.706;10.780;2023-02-26T14:36:15;1.20;;;0.57;;
45114;SDS011;30877;43.706;10.780;2023-02-26T14:38:47;0.60;;;0.33;;
45114;SDS011;30877;43.706;10.780;2023-02-26T14:41:22;0.63;;;0.30;;
45114;SDS011;30877;43.706;10.780;2023-02-26T14:43:59;0.73;;;0.40;;
45114;SDS011;30877;43.706;10.780;2023-02-26T14:46:29;1.23;;;0.55;;
45114;SDS011;30877;43.706;10.780;2023-02-26T14:48:58;0.65;;;0.40;;
45114;SDS011;30877;43.706;10.780;2023-02-26T14:51:29;0.30;;;0.10;;
45114;SDS011;30877;43.706;10.780;2023-02-26T14:54:15;0.60;;;0.38;;
45114;SDS011;30877;43.706;10.780;2023-02-26T14:56:59;1.15;;;0.40;;
45114;SDS011;30877;43.706;10.780;2023-02-26T14:59:34;1.10;;;0.50;;
45114;SDS011;30877;43.706;10.780;2023-02-26T15:02:50;3.95;;;2.20;;
45114;SDS011;30877;43.706;10.780;2023-02-26T15:05:39;0.98;;;0.63;;
45114;SDS011;30877;43.706;10.780;2023-02-26T15:08:22;0.80;;;0.30;;
45114;SDS011;30877;43.706;10.780;2023-02-26T15:14:01;0.90;;;0.40;;
45114;SDS011;30877;43.706;10.780;2023-02-26T15:16:45;0.43;;;0.10;;
45114;SDS011;30877;43.706;10.780;2023-02-26T15:19:25;2.05;;;0.30;;
45114;SDS011;30877;43.706;10.780;2023-02-26T15:22:07;0.32;;;0.30;;
45114;SDS011;30877;43.706;10.780;2023-02-26T15:24:46;0.30;;;0.20;;
45114;SDS011;30877;43.706;10.780;2023-02-26T15:27:15;0.40;;;0.20;;
45114;SDS011;30877;43.706;10.780;2023-02-26T15:29:48;0.28;;;0.13;;
45114;SDS011;30877;43.706;10.780;2023-02-26T15:32:23;0.20;;;0.10;;